createdAt,value
2023-05-20T00:00:12.239Z,2.57
2023-05-20T00:02:40.200Z,3.07
2023-05-20T00:05:08.779Z,2.60
2023-05-20T00:07:36.868Z,2.70
2023-05-20T00:10:04.471Z,3.03
2023-05-20T00:12:32.353Z,2.20
2023-05-20T00:15:00.873Z,3.33
2023-05-20T00:17:30.471Z,2.50
2023-05-20T00:19:58.027Z,2.83
2023-05-20T00:22:26.301Z,3.33
2023-05-20T00:24:53.982Z,3.00
2023-05-20T00:27:21.971Z,2.90
2023-05-20T00:29:50.297Z,3.17
2023-05-20T00:32:19.875Z,3.00
2023-05-20T00:35:00.003Z,3.13
2023-05-20T00:37:29.986Z,2.27
2023-05-20T00:39:57.748Z,3.67
2023-05-20T00:42:28.823Z,2.53
2023-05-20T00:44:57.588Z,3.47
2023-05-20T00:47:30.705Z,2.50
2023-05-20T00:49:59.746Z,2.57
2023-05-20T00:52:32.066Z,3.30
2023-05-20T00:55:00.532Z,3.23
2023-05-20T00:57:29.486Z,2.37
2023-05-20T00:59:58.915Z,3.57
2023-05-20T01:02:27.620Z,2.43
2023-05-20T01:04:57.607Z,2.73
2023-05-20T01:07:26.923Z,2.87
2023-05-20T01:09:56.626Z,3.43
2023-05-20T01:12:49.680Z,2.93
2023-05-20T01:15:18.953Z,3.27
2023-05-20T01:18:03.469Z,3.30
2023-05-20T01:20:33.093Z,3.40
2023-05-20T01:23:03.206Z,2.40
2023-05-20T01:25:33.590Z,3.10
2023-05-20T01:28:02.857Z,3.90
2023-05-20T01:30:57.670Z,2.90
2023-05-20T01:33:27.659Z,2.97
2023-05-20T01:35:56.866Z,2.63
2023-05-20T01:38:26.957Z,3.60
2023-05-20T01:40:57.578Z,2.93
2023-05-20T01:43:28.208Z,2.93
2023-05-20T01:45:56.127Z,3.50
2023-05-20T01:48:31.826Z,3.90
2023-05-20T01:50:59.863Z,2.83
2023-05-20T01:53:28.395Z,3.30
2023-05-20T01:55:56.119Z,3.83
2023-05-20T01:58:25.407Z,3.57
2023-05-20T02:00:53.360Z,3.13
2023-05-20T02:03:21.700Z,3.67
2023-05-20T02:05:49.443Z,2.93
2023-05-20T02:08:17.868Z,3.53
2023-05-20T02:10:47.929Z,3.50
2023-05-20T02:13:16.034Z,2.60
2023-05-20T02:15:45.634Z,3.40
2023-05-20T02:18:14.328Z,3.70
2023-05-20T02:20:43.252Z,3.50
2023-05-20T02:23:11.627Z,3.33
2023-05-20T02:25:41.244Z,3.20
2023-05-20T02:28:11.045Z,2.90
2023-05-20T02:30:39.790Z,2.60
2023-05-20T02:33:10.940Z,3.47
2023-05-20T02:35:38.692Z,4.17
2023-05-20T02:38:09.048Z,3.00
2023-05-20T02:40:36.688Z,2.93
2023-05-20T02:43:05.156Z,3.67
2023-05-20T02:45:36.527Z,3.77
2023-05-20T02:48:07.073Z,3.30
2023-05-20T02:50:38.573Z,3.27
2023-05-20T02:53:06.529Z,3.67
2023-05-20T02:55:37.748Z,3.40
2023-05-20T02:58:05.984Z,3.40
2023-05-20T03:00:41.190Z,3.30
2023-05-20T03:03:11.207Z,3.07
2023-05-20T03:05:41.304Z,2.70
2023-05-20T03:08:12.478Z,3.67
2023-05-20T03:10:40.514Z,3.40
2023-05-20T03:13:15.284Z,2.80
2023-05-20T03:15:46.290Z,4.17
2023-05-20T03:18:14.721Z,3.53
2023-05-20T03:20:43.842Z,4.13
2023-05-20T03:23:13.339Z,3.40
2023-05-20T03:25:42.360Z,2.57
2023-05-20T03:28:10.140Z,3.20
2023-05-20T03:30:38.749Z,3.27
2023-05-20T03:33:08.605Z,3.43
2023-05-20T03:35:36.664Z,3.73
2023-05-20T03:38:04.864Z,2.90
2023-05-20T03:40:33.082Z,3.10
2023-05-20T03:43:01.516Z,3.40
2023-05-20T03:45:29.637Z,4.00
2023-05-20T03:47:58.081Z,3.50
2023-05-20T03:50:26.164Z,3.37
2023-05-20T03:52:55.017Z,3.10
2023-05-20T03:55:23.380Z,3.50
2023-05-20T03:57:51.987Z,3.63
2023-05-20T04:00:19.676Z,3.50
2023-05-20T04:02:48.593Z,3.07
2023-05-20T04:05:16.713Z,3.27
2023-05-20T04:07:46.065Z,3.50
2023-05-20T04:10:14.466Z,3.63
2023-05-20T04:12:43.019Z,3.37
2023-05-20T04:15:12.186Z,3.23
2023-05-20T04:17:41.553Z,3.63
2023-05-20T04:20:11.504Z,3.40
2023-05-20T04:22:40.218Z,3.23
2023-05-20T04:25:11.233Z,3.60
2023-05-20T04:27:40.326Z,4.37
2023-05-20T04:30:09.297Z,3.87
2023-05-20T04:32:37.522Z,4.43
2023-05-20T04:35:12.244Z,3.37
2023-05-20T04:37:43.608Z,3.67
2023-05-20T04:40:13.367Z,3.93
2023-05-20T04:42:41.581Z,2.97
2023-05-20T04:45:11.025Z,3.23
2023-05-20T04:47:40.504Z,4.00
2023-05-20T04:50:12.191Z,3.43
2023-05-20T04:52:42.639Z,3.23
2023-05-20T04:55:11.794Z,3.47
2023-05-20T04:57:42.372Z,3.50
2023-05-20T05:00:12.852Z,3.47
2023-05-20T05:02:41.103Z,3.67
2023-05-20T05:05:09.657Z,3.77
2023-05-20T05:07:37.325Z,3.23
2023-05-20T05:10:05.402Z,3.00
2023-05-20T05:12:33.437Z,3.53
2023-05-20T05:15:01.312Z,3.67
2023-05-20T05:17:29.302Z,3.40
2023-05-20T05:19:58.184Z,3.47
2023-05-20T05:22:26.860Z,3.13
2023-05-20T05:24:55.896Z,3.13
2023-05-20T05:27:24.062Z,2.77
2023-05-20T05:29:51.782Z,2.80
2023-05-20T05:32:19.681Z,3.30
2023-05-20T05:34:48.014Z,2.30
2023-05-20T05:37:16.751Z,2.87
2023-05-20T05:39:44.984Z,2.90
2023-05-20T05:42:13.566Z,3.50
2023-05-20T05:44:41.748Z,3.20
2023-05-20T05:47:09.648Z,3.27
2023-05-20T05:49:38.157Z,3.27
2023-05-20T05:52:08.152Z,2.90
2023-05-20T05:54:42.985Z,3.27
2023-05-20T05:57:14.621Z,3.00
2023-05-20T05:59:45.145Z,2.57
2023-05-20T06:02:19.642Z,2.73
2023-05-20T06:04:49.381Z,3.00
2023-05-20T06:07:17.274Z,2.40
2023-05-20T06:09:49.385Z,3.10
2023-05-20T06:12:19.996Z,2.43
2023-05-20T06:14:51.228Z,2.87
2023-05-20T06:17:20.993Z,2.60
2023-05-20T06:19:51.770Z,3.07
2023-05-20T06:22:19.935Z,2.67
2023-05-20T06:24:49.448Z,2.30
2023-05-20T06:27:17.324Z,2.83
2023-05-20T06:29:45.998Z,2.30
2023-05-20T06:32:16.097Z,2.23
2023-05-20T06:34:47.252Z,2.50
2023-05-20T06:37:21.018Z,2.27
2023-05-20T06:39:54.769Z,2.37
2023-05-20T06:42:27.940Z,2.33
2023-05-20T06:45:00.463Z,2.67
2023-05-20T06:47:32.137Z,2.53
2023-05-20T06:50:02.376Z,2.50
2023-05-20T06:52:31.453Z,2.27
2023-05-20T06:55:02.020Z,2.60
2023-05-20T06:57:32.932Z,2.70
2023-05-20T07:00:01.827Z,2.40
2023-05-20T07:02:34.728Z,2.90
2023-05-20T07:05:02.719Z,2.53
2023-05-20T07:07:30.752Z,2.50
2023-05-20T07:10:02.191Z,2.93
2023-05-20T07:12:38.989Z,2.50
2023-05-20T07:15:13.220Z,2.70
2023-05-20T07:17:40.972Z,2.80
2023-05-20T07:20:13.820Z,2.77
2023-05-20T07:22:51.303Z,2.57
2023-05-20T07:25:26.099Z,2.27
2023-05-20T07:27:57.486Z,2.33
2023-05-20T07:30:24.984Z,2.27
2023-05-20T07:33:11.963Z,2.40
2023-05-20T07:35:53.029Z,2.80
2023-05-20T07:38:24.287Z,2.67
2023-05-20T07:41:21.738Z,2.20
2023-05-20T07:43:54.015Z,2.43
2023-05-20T07:47:00.893Z,2.17
2023-05-20T07:49:31.460Z,2.33
2023-05-20T07:54:45.441Z,2.50
2023-05-20T07:57:24.071Z,2.73
2023-05-20T07:59:52.779Z,2.73
2023-05-20T08:02:22.383Z,2.17
2023-05-20T08:05:06.812Z,2.47
2023-05-20T08:07:38.137Z,2.70
2023-05-20T08:10:10.032Z,2.37
2023-05-20T08:12:44.377Z,2.83
2023-05-20T08:15:13.052Z,2.73
2023-05-20T08:17:54.655Z,2.87
2023-05-20T08:20:23.226Z,2.70
2023-05-20T08:22:51.087Z,2.57
2023-05-20T08:25:19.487Z,2.43
2023-05-20T08:27:48.209Z,2.47
2023-05-20T08:30:16.461Z,3.43
2023-05-20T08:32:49.613Z,2.57
2023-05-20T08:35:19.133Z,2.23
2023-05-20T08:37:47.050Z,2.97
2023-05-20T08:40:16.231Z,3.20
2023-05-20T08:42:49.543Z,2.50
2023-05-20T08:45:22.358Z,2.50
2023-05-20T08:47:51.593Z,2.50
2023-05-20T08:50:24.395Z,3.00
2023-05-20T08:52:54.398Z,2.70
2023-05-20T08:55:48.457Z,2.47
2023-05-20T08:58:20.076Z,2.80
2023-05-20T09:00:48.254Z,2.70
2023-05-20T09:03:16.717Z,3.10
2023-05-20T09:05:45.159Z,2.53
2023-05-20T09:08:14.562Z,2.40
2023-05-20T09:10:44.873Z,2.77
2023-05-20T09:13:16.460Z,2.77
2023-05-20T09:15:43.880Z,2.20
2023-05-20T09:18:12.474Z,3.17
2023-05-20T09:20:41.322Z,2.93
2023-05-20T09:23:10.974Z,3.23
2023-05-20T09:25:38.823Z,3.13
2023-05-20T09:28:09.501Z,3.20
2023-05-20T09:30:38.138Z,2.77
2023-05-20T09:33:08.000Z,2.93
2023-05-20T09:35:38.794Z,3.33
2023-05-20T09:38:11.287Z,2.53
2023-05-20T09:40:40.861Z,2.80
2023-05-20T09:43:09.920Z,2.63
2023-05-20T09:45:39.190Z,2.97
2023-05-20T09:48:10.236Z,2.80
2023-05-20T09:50:37.861Z,3.17
2023-05-20T09:53:11.195Z,2.70
2023-05-20T09:55:40.958Z,2.90
2023-05-20T09:58:16.484Z,3.10
2023-05-20T10:00:45.400Z,2.60
2023-05-20T10:03:14.479Z,3.23
2023-05-20T10:06:13.817Z,3.00
2023-05-20T10:09:04.135Z,3.30
2023-05-20T10:12:04.466Z,3.17
2023-05-20T10:15:16.949Z,3.07
2023-05-20T10:18:07.341Z,3.43
2023-05-20T10:20:51.060Z,4.20
2023-05-20T10:23:29.332Z,3.73
2023-05-20T10:25:59.596Z,3.43
2023-05-20T10:28:33.226Z,3.27
2023-05-20T10:31:02.916Z,2.83
2023-05-20T10:33:43.558Z,3.47
2023-05-20T10:36:22.846Z,3.50
2023-05-20T10:38:57.226Z,2.90
2023-05-20T10:41:29.846Z,3.50
2023-05-20T10:44:06.125Z,3.57
2023-05-20T10:46:53.742Z,4.53
2023-05-20T10:49:27.415Z,3.90
2023-05-20T10:51:56.302Z,3.87
2023-05-20T10:54:24.623Z,4.40
2023-05-20T10:56:54.138Z,4.13
2023-05-20T10:59:23.325Z,3.97
2023-05-20T11:01:51.860Z,4.20
2023-05-20T11:04:20.583Z,3.67
2023-05-20T11:06:56.673Z,3.97
2023-05-20T11:09:24.784Z,4.00
2023-05-20T11:11:54.792Z,4.03
2023-05-20T11:14:22.694Z,3.70
2023-05-20T11:16:56.506Z,4.27
2023-05-20T11:19:24.608Z,4.07
2023-05-20T11:21:53.184Z,4.23
2023-05-20T11:24:29.384Z,4.30
2023-05-20T11:26:58.380Z,3.87
2023-05-20T11:29:29.746Z,4.03
2023-05-20T11:31:57.442Z,4.00
2023-05-20T11:34:29.983Z,4.23
2023-05-20T11:37:01.082Z,4.03
2023-05-20T11:39:36.445Z,4.07
2023-05-20T11:42:06.293Z,4.20
2023-05-20T11:44:35.742Z,4.00
2023-05-20T11:47:08.003Z,4.40
2023-05-20T11:49:40.884Z,3.77
2023-05-20T11:52:14.410Z,4.40
2023-05-20T11:54:43.471Z,3.90
2023-05-20T11:57:15.827Z,4.53
2023-05-20T11:59:46.116Z,3.77
2023-05-20T12:02:17.584Z,4.40
2023-05-20T12:04:46.449Z,4.67
2023-05-20T12:07:16.568Z,4.07
2023-05-20T12:09:44.301Z,4.07
2023-05-20T12:12:14.462Z,3.43
2023-05-20T12:14:42.350Z,4.03
2023-05-20T12:17:10.721Z,4.17
2023-05-20T12:19:41.218Z,4.53
2023-05-20T12:22:10.344Z,4.10
2023-05-20T12:24:44.972Z,3.80
2023-05-20T12:27:13.418Z,4.00
2023-05-20T12:29:45.107Z,4.50
2023-05-20T12:32:13.956Z,4.40
2023-05-20T12:34:42.313Z,4.30
2023-05-20T12:37:11.068Z,4.40
2023-05-20T12:39:38.612Z,4.13
2023-05-20T12:42:06.713Z,4.20
2023-05-20T12:44:36.740Z,4.57
2023-05-20T12:47:05.717Z,4.23
2023-05-20T12:49:33.657Z,4.00
2023-05-20T12:52:08.584Z,4.33
2023-05-20T12:54:40.254Z,3.70
2023-05-20T12:57:08.422Z,4.37
2023-05-20T12:59:36.096Z,4.70
2023-05-20T13:02:04.032Z,3.57
2023-05-20T13:04:32.774Z,3.60
2023-05-20T13:07:01.164Z,4.37
2023-05-20T13:09:30.499Z,3.43
2023-05-20T13:11:58.972Z,4.30
2023-05-20T13:14:32.618Z,4.07
2023-05-20T13:17:11.796Z,4.80
2023-05-20T13:19:59.648Z,4.10
2023-05-20T13:22:30.746Z,3.77
2023-05-20T13:25:01.457Z,3.90
2023-05-20T13:27:35.775Z,4.27
2023-05-20T13:30:08.357Z,3.67
2023-05-20T13:32:42.091Z,3.87
2023-05-20T13:35:14.885Z,4.33
2023-05-20T13:37:44.497Z,3.90
2023-05-20T13:40:22.000Z,3.70
2023-05-20T13:42:50.792Z,3.93
2023-05-20T13:45:23.629Z,3.77
2023-05-20T13:47:54.962Z,3.97
2023-05-20T13:50:30.207Z,4.03
2023-05-20T13:53:02.120Z,4.00
2023-05-20T13:55:31.298Z,3.80
2023-05-20T13:58:03.646Z,4.23
2023-05-20T14:00:52.599Z,4.37
2023-05-20T14:03:21.645Z,3.50
2023-05-20T14:05:53.300Z,4.00
2023-05-20T14:08:24.854Z,3.93
2023-05-20T14:10:56.342Z,4.03
2023-05-20T14:13:29.285Z,4.30
2023-05-20T14:16:19.185Z,4.33
2023-05-20T14:18:58.996Z,4.47
2023-05-20T14:21:39.749Z,3.83
2023-05-20T14:24:08.953Z,3.83
2023-05-20T14:26:38.315Z,3.77
2023-05-20T14:29:11.510Z,3.93
2023-05-20T14:31:49.334Z,4.43
2023-05-20T14:34:26.672Z,3.87
2023-05-20T14:36:55.531Z,3.67
2023-05-20T14:39:28.785Z,4.47
2023-05-20T14:41:59.224Z,4.00
2023-05-20T14:44:31.709Z,3.53
2023-05-20T14:47:01.381Z,3.70
2023-05-20T14:49:37.985Z,3.63
2023-05-20T14:52:14.476Z,3.90
2023-05-20T14:54:49.414Z,4.00
2023-05-20T14:57:19.589Z,3.87
2023-05-20T14:59:56.024Z,4.50
2023-05-20T15:02:26.099Z,3.77
2023-05-20T15:04:56.051Z,3.93
2023-05-20T15:07:28.951Z,4.20
2023-05-20T15:10:25.090Z,3.60
2023-05-20T15:12:54.897Z,3.63
2023-05-20T15:15:23.696Z,3.90
2023-05-20T15:17:52.007Z,3.33
2023-05-20T15:20:32.006Z,3.93
2023-05-20T15:23:02.917Z,3.50
2023-05-20T15:25:31.460Z,3.43
2023-05-20T15:27:59.649Z,3.90
2023-05-20T15:30:30.817Z,4.47
2023-05-20T15:33:02.355Z,4.37
2023-05-20T15:35:30.599Z,4.40
2023-05-20T15:38:00.786Z,3.67
2023-05-20T15:40:28.741Z,4.10
2023-05-20T15:42:57.460Z,4.60
2023-05-20T15:45:25.571Z,3.53
2023-05-20T15:47:53.045Z,4.53
2023-05-20T15:50:24.006Z,3.87
2023-05-20T15:52:58.524Z,4.37
2023-05-20T15:55:28.423Z,3.30
2023-05-20T15:57:57.447Z,4.23
2023-05-20T16:00:25.558Z,4.00
2023-05-20T16:02:58.933Z,3.60
2023-05-20T16:05:27.224Z,4.13
2023-05-20T16:07:55.360Z,4.13
2023-05-20T16:10:31.321Z,4.33
2023-05-20T16:13:00.857Z,4.07
2023-05-20T16:15:37.259Z,4.10
2023-05-20T16:18:05.927Z,3.50
2023-05-20T16:20:36.999Z,3.73
2023-05-20T16:23:05.513Z,3.83
2023-05-20T16:25:34.870Z,3.70
2023-05-20T16:28:03.303Z,4.00
2023-05-20T16:30:31.812Z,4.10
2023-05-20T16:32:59.818Z,3.80
2023-05-20T16:35:28.312Z,4.10
2023-05-20T16:37:56.729Z,3.43
2023-05-20T16:40:36.244Z,3.20
2023-05-20T16:43:07.117Z,3.80
2023-05-20T16:45:35.199Z,3.43
2023-05-20T16:48:03.271Z,3.80
2023-05-20T16:50:32.701Z,3.67
2023-05-20T16:53:03.712Z,3.70
2023-05-20T16:55:31.440Z,4.47
2023-05-20T16:57:59.816Z,3.97
2023-05-20T17:00:28.027Z,4.80
2023-05-20T17:02:56.927Z,4.30
2023-05-20T17:05:28.415Z,4.60
2023-05-20T17:08:00.290Z,4.30
2023-05-20T17:10:29.566Z,4.00
2023-05-20T17:13:01.034Z,4.13
2023-05-20T17:15:29.449Z,4.20
2023-05-20T17:18:00.695Z,4.87
2023-05-20T17:20:28.483Z,4.60
2023-05-20T17:22:56.287Z,4.53
2023-05-20T17:25:27.252Z,5.40
2023-05-20T17:28:01.470Z,4.73
2023-05-20T17:30:29.989Z,4.50
2023-05-20T17:33:00.145Z,4.20
2023-05-20T17:35:28.337Z,4.20
2023-05-20T17:37:56.654Z,4.33
2023-05-20T17:40:24.464Z,4.90
2023-05-20T17:42:51.858Z,5.00
2023-05-20T17:45:19.726Z,5.30
2023-05-20T17:47:48.243Z,4.80
2023-05-20T17:50:17.636Z,5.10
2023-05-20T17:52:47.775Z,4.97
2023-05-20T17:55:18.577Z,4.57
2023-05-20T17:57:46.424Z,4.83
2023-05-20T18:00:14.479Z,4.90
2023-05-20T18:02:48.530Z,4.83
2023-05-20T18:05:19.853Z,4.50
2023-05-20T18:07:48.095Z,4.70
2023-05-20T18:10:15.918Z,5.03
2023-05-20T18:12:43.867Z,3.77
2023-05-20T18:15:14.633Z,4.67
2023-05-20T18:17:42.904Z,4.50
2023-05-20T18:20:12.678Z,4.20
2023-05-20T18:22:45.426Z,4.73
2023-05-20T18:25:15.221Z,4.50
2023-05-20T18:27:43.587Z,4.17
2023-05-20T18:30:11.446Z,4.17
2023-05-20T18:32:40.916Z,5.17
2023-05-20T18:35:09.708Z,4.33
2023-05-20T18:37:38.059Z,4.33
2023-05-20T18:40:07.086Z,4.43
2023-05-20T18:42:35.252Z,5.27
2023-05-20T18:45:03.325Z,4.57
2023-05-20T18:47:31.854Z,4.90
2023-05-20T18:50:00.473Z,4.57
2023-05-20T18:52:29.531Z,3.53
2023-05-20T18:54:57.345Z,4.40
2023-05-20T18:57:26.640Z,5.17
2023-05-20T18:59:54.729Z,4.27
2023-05-20T19:02:25.613Z,5.13
2023-05-20T19:04:54.405Z,5.10
2023-05-20T19:07:29.921Z,4.80
2023-05-20T19:09:57.751Z,5.00
2023-05-20T19:12:26.800Z,4.77
2023-05-20T19:14:54.752Z,4.57
2023-05-20T19:17:24.390Z,5.10
2023-05-20T19:19:54.473Z,5.53
2023-05-20T19:22:23.587Z,5.17
2023-05-20T19:24:52.175Z,6.20
2023-05-20T19:27:20.263Z,5.53
2023-05-20T19:29:51.257Z,5.70
2023-05-20T19:32:20.659Z,5.07
2023-05-20T19:34:49.482Z,5.60
2023-05-20T19:37:17.278Z,5.73
2023-05-20T19:39:45.683Z,5.10
2023-05-20T19:42:14.024Z,5.00
2023-05-20T19:44:43.522Z,5.63
2023-05-20T19:47:11.595Z,5.10
2023-05-20T19:49:40.786Z,5.20
2023-05-20T19:52:09.408Z,4.80
2023-05-20T19:54:37.491Z,7.70
2023-05-20T19:57:05.659Z,6.50
2023-05-20T19:59:34.297Z,4.67
2023-05-20T20:02:03.116Z,5.00
2023-05-20T20:04:32.065Z,5.37
2023-05-20T20:07:00.350Z,4.47
2023-05-20T20:09:30.778Z,5.30
2023-05-20T20:11:59.685Z,5.00
2023-05-20T20:14:31.007Z,4.47
2023-05-20T20:18:04.789Z,4.30
2023-05-20T20:21:20.455Z,5.70
2023-05-20T20:24:01.519Z,4.67
2023-05-20T20:26:30.837Z,4.70
2023-05-20T20:28:59.950Z,4.67
2023-05-20T20:31:27.782Z,4.13
2023-05-20T20:33:56.877Z,4.33
2023-05-20T20:36:26.400Z,4.30
2023-05-20T20:38:57.743Z,4.40
2023-05-20T20:41:26.827Z,4.77
2023-05-20T20:43:58.343Z,5.40
2023-05-20T20:46:27.763Z,3.90
2023-05-20T20:48:56.835Z,3.90
2023-05-20T20:51:25.984Z,4.50
2023-05-20T20:53:54.646Z,4.17
2023-05-20T20:56:22.925Z,4.43
2023-05-20T20:58:54.378Z,4.50
2023-05-20T21:01:22.570Z,4.10
2023-05-20T21:03:54.639Z,3.53
2023-05-20T21:06:23.072Z,4.23
2023-05-20T21:08:53.337Z,3.77
2023-05-20T21:11:22.641Z,5.03
2023-05-20T21:13:52.206Z,4.03
2023-05-20T21:16:21.206Z,4.83
2023-05-20T21:18:50.579Z,5.87
2023-05-20T21:21:21.743Z,4.40
2023-05-20T21:23:52.442Z,5.07
2023-05-20T21:26:26.164Z,4.20
2023-05-20T21:28:55.104Z,4.57
2023-05-20T21:31:24.730Z,4.87
2023-05-20T21:33:53.690Z,4.23
2023-05-20T21:36:24.420Z,4.70
2023-05-20T21:39:07.596Z,5.23
2023-05-20T21:41:35.272Z,4.60
2023-05-20T21:44:09.497Z,4.57
2023-05-20T21:46:37.638Z,5.27
2023-05-20T21:49:07.729Z,5.00
2023-05-20T21:51:36.018Z,4.33
2023-05-20T21:54:05.832Z,5.37
2023-05-20T21:56:35.536Z,5.53
2023-05-20T21:59:06.124Z,4.83
2023-05-20T22:01:34.713Z,5.57
2023-05-20T22:04:05.568Z,4.60
2023-05-20T22:06:41.200Z,4.40
2023-05-20T22:09:10.358Z,5.13
2023-05-20T22:11:39.875Z,5.47
2023-05-20T22:14:09.370Z,4.60
2023-05-20T22:16:40.601Z,4.90
2023-05-20T22:19:12.239Z,3.57
2023-05-20T22:24:19.360Z,6.17
2023-05-20T22:26:52.586Z,5.10
2023-05-20T22:29:21.686Z,4.90
2023-05-20T22:31:56.371Z,4.93
2023-05-20T22:34:27.775Z,4.77
2023-05-20T22:37:00.335Z,4.63
2023-05-20T22:39:30.604Z,4.97
2023-05-20T22:41:58.936Z,4.37
2023-05-20T22:44:29.178Z,5.20
2023-05-20T22:46:57.367Z,5.20
2023-05-20T22:49:26.505Z,4.70
2023-05-20T22:51:55.522Z,4.37
2023-05-20T22:54:28.987Z,5.20
2023-05-20T22:57:02.549Z,4.87
2023-05-20T22:59:31.757Z,5.37
2023-05-20T23:02:07.042Z,4.87
2023-05-20T23:04:36.994Z,4.23
2023-05-20T23:07:06.357Z,4.83
2023-05-20T23:09:34.823Z,4.67
2023-05-20T23:12:03.986Z,4.50
2023-05-20T23:14:32.140Z,4.57
2023-05-20T23:17:01.669Z,4.77
2023-05-20T23:19:32.288Z,4.53
2023-05-20T23:22:04.750Z,4.03
2023-05-20T23:24:36.775Z,4.73
2023-05-20T23:27:08.602Z,4.70
2023-05-20T23:29:44.366Z,5.13
2023-05-20T23:32:17.655Z,4.77
2023-05-20T23:34:50.679Z,4.50
2023-05-20T23:37:21.752Z,4.53
2023-05-20T23:39:54.818Z,4.40
2023-05-20T23:42:28.884Z,5.10
2023-05-20T23:44:58.286Z,4.90
2023-05-20T23:47:30.041Z,4.70
2023-05-20T23:50:00.264Z,4.20
2023-05-20T23:52:28.705Z,4.10
2023-05-20T23:55:02.450Z,5.17
2023-05-20T23:57:32.022Z,4.47
